Time;durP1;ratioP1;P1;durP2;ratioP2;P2;SDS_P1;SDS_P2;PMS_P1;PMS_P2;Temp;Humidity;BMP_temperature;BMP_pressure;BME280_temperature;BME280_humidity;BME280_pressure;Samples;Min_cycle;Max_cycle;Signal;HPM_P1;HPM_P2
2023/12/18 00:01:26;;;;;;;12.00;4.15;;;-0.20;99.90;;;;;;5049108;28;20052;-81
2023/12/18 00:03:52;;;;;;;8.55;5.70;;;;;;;;;;5050784;28;20025;-82
2023/12/18 00:06:18;;;;;;;9.32;4.40;;;;;;;;;;5050800;28;20108;-81
2023/12/18 00:08:44;;;;;;;10.05;3.60;;;;;;;;;;5049368;28;20131;-80
2023/12/18 00:11:10;;;;;;;3.85;1.80;;;;;;;;;;5050683;28;20032;-82
2023/12/18 00:13:35;;;;;;;6.32;3.50;;;-0.20;99.90;;;;;;5050354;28;20024;-81
2023/12/18 00:16:01;;;;;;;10.60;3.75;;;-0.10;99.90;;;;;;5049703;28;20025;-82
2023/12/18 00:18:27;;;;;;;4.88;3.72;;;;;;;;;;5049391;28;20393;-82
2023/12/18 00:20:53;;;;;;;15.55;4.80;;;;;;;;;;5048955;28;20024;-82
2023/12/18 00:23:19;;;;;;;7.68;5.97;;;;;;;;;;5052800;28;20040;-82
2023/12/18 00:25:46;;;;;;;7.10;3.60;;;;;;;;;;5064994;28;20021;-82
2023/12/18 00:28:11;;;;;;;8.32;4.00;;;;;;;;;;5050204;28;20033;-83
2023/12/18 00:30:37;;;;;;;8.43;3.60;;;-0.20;99.90;;;;;;5050280;28;20075;-82
2023/12/18 00:33:03;;;;;;;7.07;5.05;;;;;;;;;;5052778;28;20398;-82
2023/12/18 00:35:29;;;;;;;11.65;5.38;;;;;;;;;;5050546;28;20045;-82
2023/12/18 00:37:55;;;;;;;7.55;3.50;;;;;;;;;;5050506;28;20052;-82
2023/12/18 00:40:21;;;;;;;12.13;4.85;;;;;;;;;;5050172;28;20027;-82
2023/12/18 00:42:47;;;;;;;8.10;5.10;;;;;;;;;;5049971;28;20037;-82
2023/12/18 00:45:15;;;;;;;16.00;5.43;;;-1.50;99.90;;;;;;5050633;28;20563;-81
2023/12/18 00:47:41;;;;;;;7.22;5.18;;;;;;;;;;5050145;28;20073;-83
2023/12/18 00:50:09;;;;;;;22.20;6.93;;;-0.20;99.90;;;;;;5048853;28;20737;-82
2023/12/18 00:52:35;;;;;;;13.88;7.85;;;;;;;;;;5060522;28;20052;-82
2023/12/18 00:55:02;;;;;;;16.17;7.97;;;;;;;;;;5052588;28;20338;-82
2023/12/18 00:57:28;;;;;;;17.33;11.63;;;;;;;;;;5049255;28;20086;-82
2023/12/18 00:59:54;;;;;;;14.80;8.05;;;;;;;;;;5049652;28;20512;-82
2023/12/18 01:02:20;;;;;;;16.85;8.15;;;;;;;;;;5048654;28;20021;-81
2023/12/18 01:04:46;;;;;;;18.13;9.32;;;;;;;;;;5049550;28;20071;-82
2023/12/18 01:07:12;;;;;;;10.27;4.55;;;;;;;;;;5049641;28;20043;-81
2023/12/18 01:09:38;;;;;;;8.68;4.53;;;;;;;;;;5049410;28;20029;-82
2023/12/18 01:12:03;;;;;;;12.93;5.57;;;-0.40;99.90;;;;;;5049585;28;20032;-82
2023/12/18 01:14:29;;;;;;;9.30;4.22;;;;;;;;;;5047860;28;20021;-81
2023/12/18 01:16:55;;;;;;;8.20;4.00;;;-0.30;99.90;;;;;;5046228;28;20032;-81
2023/12/18 01:19:21;;;;;;;8.77;6.00;;;;;;;;;;5049425;28;20021;-82
2023/12/18 01:21:47;;;;;;;7.13;4.20;;;;;;;;;;5049426;28;20029;-82
2023/12/18 01:24:13;;;;;;;12.57;4.97;;;;;;;;;;5048117;28;20075;-83
2023/12/18 01:26:39;;;;;;;8.57;4.50;;;-0.30;99.90;;;;;;5049425;28;20508;-82
2023/12/18 01:29:05;;;;;;;11.52;7.97;;;;;;;;;;5048229;28;20033;-82
2023/12/18 01:31:31;;;;;;;7.53;4.40;;;;;;;;;;5049375;28;20028;-82
2023/12/18 01:33:58;;;;;;;7.97;6.38;;;-0.70;99.90;;;;;;5039369;28;20577;-82
2023/12/18 01:36:24;;;;;;;19.73;7.53;;;-0.40;99.90;;;;;;5057602;28;20048;-82
2023/12/18 01:38:50;;;;;;;5.68;3.38;;;-0.40;99.90;;;;;;5049833;28;20048;-82
2023/12/18 01:41:16;;;;;;;7.63;4.50;;;;;;;;;;5049251;28;20052;-82
2023/12/18 01:43:42;;;;;;;10.50;4.93;;;;;;;;;;5049282;28;20513;-82
2023/12/18 01:46:08;;;;;;;14.68;5.50;;;-0.40;99.90;;;;;;5049517;28;20092;-82
2023/12/18 01:48:34;;;;;;;8.52;5.13;;;0.10;99.90;;;;;;5048110;28;20033;-81
2023/12/18 01:51:01;;;;;;;8.05;4.45;;;;;;;;;;5049116;28;20021;-82
2023/12/18 01:53:38;;;;;;;12.80;7.82;;;-0.50;99.90;;;;;;5047521;28;20076;-81
2023/12/18 01:56:05;;;;;;;8.27;4.50;;;;;;;;;;5048627;28;20489;-82
2023/12/18 01:58:32;;;;;;;7.97;5.55;;;-0.50;99.90;;;;;;5048897;28;20025;-81
2023/12/18 02:00:59;;;;;;;11.75;6.88;;;-0.50;99.90;;;;;;5049778;28;20029;-82
2023/12/18 02:03:25;;;;;;;6.80;4.70;;;;;;;;;;5061706;28;20036;-82
2023/12/18 02:05:51;;;;;;;14.32;7.88;;;;;;;;;;5049005;28;20775;-82
2023/12/18 02:08:17;;;;;;;4.35;3.95;;;;;;;;;;5048948;28;20037;-82
2023/12/18 02:10:44;;;;;;;8.32;6.32;;;-0.60;99.90;;;;;;5048981;28;20498;-82
2023/12/18 02:13:09;;;;;;;9.40;5.32;;;-0.60;99.90;;;;;;5048878;28;20393;-82
2023/12/18 02:15:35;;;;;;;9.27;5.25;;;;;;;;;;5047846;28;20017;-82
2023/12/18 02:18:01;;;;;;;7.38;6.15;;;;;;;;;;5041904;28;20029;-81
2023/12/18 02:20:27;;;;;;;5.07;4.20;;;;;;;;;;5048945;28;20025;-82
2023/12/18 02:22:53;;;;;;;11.40;6.18;;;;;;;;;;5059058;28;20044;-82
2023/12/18 02:25:20;;;;;;;10.00;5.32;;;;;;;;;;5047337;28;20040;-82
2023/12/18 02:27:48;;;;;;;16.20;4.63;;;-0.60;99.90;;;;;;5048546;28;20048;-81
2023/12/18 02:30:20;;;;;;;16.67;5.30;;;-1.90;99.90;;;;;;5048726;28;20497;-82
2023/12/18 02:32:46;;;;;;;12.88;7.45;;;-0.60;99.90;;;;;;5057592;28;20028;-83
2023/12/18 02:35:12;;;;;;;17.23;5.80;;;-1.10;99.90;;;;;;5049289;28;20025;-82
2023/12/18 02:37:38;;;;;;;8.45;6.32;;;;;;;;;;5049113;28;20025;-83
2023/12/18 02:40:05;;;;;;;12.48;5.82;;;-0.80;99.90;;;;;;5051304;28;20025;-82
2023/12/18 02:42:30;;;;;;;5.00;4.18;;;-0.70;99.90;;;;;;5060823;28;20028;-81
2023/12/18 02:44:57;;;;;;;9.27;5.45;;;;;;;;;;5057323;28;20036;-82
2023/12/18 02:47:23;;;;;;;5.47;4.93;;;-0.30;99.90;;;;;;5052437;28;20477;-81
2023/12/18 02:49:49;;;;;;;7.18;4.05;;;-0.50;99.90;;;;;;5051784;28;20044;-82
2023/12/18 02:52:15;;;;;;;7.10;3.60;;;;;;;;;;5050987;28;20032;-82
2023/12/18 02:54:41;;;;;;;9.63;4.22;;;;;;;;;;5052091;28;20053;-82
2023/12/18 02:57:07;;;;;;;10.20;5.38;;;;;;;;;;5052099;28;20040;-82
2023/12/18 02:59:32;;;;;;;11.00;3.45;;;-0.40;99.90;;;;;;5052555;28;20032;-83
2023/12/18 03:01:58;;;;;;;8.45;4.50;;;;;;;;;;5051977;28;20033;-81
2023/12/18 03:04:24;;;;;;;5.60;3.83;;;;;;;;;;5051763;28;20513;-83
2023/12/18 03:06:50;;;;;;;3.20;2.33;;;;;;;;;;5051845;28;20070;-82
2023/12/18 03:09:16;;;;;;;3.78;3.25;;;-0.70;99.90;;;;;;5052022;28;20065;-83
2023/12/18 03:11:43;;;;;;;7.90;5.20;;;-0.60;99.90;;;;;;5051340;28;20134;-83
2023/12/18 03:14:10;;;;;;;7.18;5.57;;;;;;;;;;5041018;28;20386;-82
2023/12/18 03:16:39;;;;;;;;;;;-0.70;99.90;;;;;;5048609;28;20041;-83
2023/12/18 03:19:05;;;;;;;8.20;5.47;;;;;;;;;;5052060;28;19909;-82
2023/12/18 03:21:31;;;;;;;12.10;5.93;;;;;;;;;;5056880;28;20087;-82
2023/12/18 03:23:57;;;;;;;6.15;4.03;;;;;;;;;;5056571;28;20048;-82
2023/12/18 03:26:23;;;;;;;8.68;4.45;;;;;;;;;;5050209;28;20060;-82
2023/12/18 03:28:49;;;;;;;10.15;6.20;;;-0.70;99.90;;;;;;5051656;28;20041;-82
2023/12/18 03:31:15;;;;;;;12.63;5.88;;;-0.80;99.90;;;;;;5051334;28;20112;-82
2023/12/18 03:33:41;;;;;;;14.38;5.85;;;;;;;;;;5051611;28;20096;-83
2023/12/18 03:36:08;;;;;;;4.35;3.17;;;-0.80;99.90;;;;;;5051041;28;20029;-81
2023/12/18 03:38:33;;;;;;;6.95;3.50;;;-0.80;99.90;;;;;;5050307;28;20071;-82
2023/12/18 03:41:00;;;;;;;11.32;2.47;;;;;;;;;;5050879;28;20523;-81
2023/12/18 03:43:26;;;;;;;5.30;3.70;;;;;;;;;;5051281;28;20032;-82
2023/12/18 03:45:52;;;;;;;9.70;3.28;;;-0.80;99.90;;;;;;5051053;28;20031;-83
2023/12/18 03:48:19;;;;;;;9.48;4.18;;;;;;;;;;5051444;28;20051;-82
2023/12/18 03:50:45;;;;;;;9.07;3.90;;;;;;;;;;5048970;28;20405;-82
2023/12/18 03:53:11;;;;;;;14.43;5.13;;;;;;;;;;5050750;28;20419;-82
2023/12/18 03:55:38;;;;;;;9.57;5.65;;;;;;;;;;5051073;28;20044;-83
2023/12/18 03:58:04;;;;;;;8.37;3.60;;;;;;;;;;5051431;28;20021;-83
2023/12/18 04:00:30;;;;;;;8.50;5.70;;;-0.80;99.90;;;;;;5050914;28;20389;-83
2023/12/18 04:02:55;;;;;;;12.27;5.03;;;-1.30;99.90;;;;;;5050768;28;20017;-82
2023/12/18 04:05:24;;;;;;;3.92;2.92;;;;;;;;;;5050318;28;20040;-82
2023/12/18 04:07:50;;;;;;;5.65;4.10;;;;;;;;;;5049228;28;20112;-82
2023/12/18 04:10:16;;;;;;;4.10;2.53;;;-1.30;99.90;;;;;;5043195;28;20064;-82
2023/12/18 04:12:42;;;;;;;7.82;3.72;;;;;;;;;;5050879;28;20036;-82
2023/12/18 04:15:09;;;;;;;6.40;3.20;;;-1.50;99.90;;;;;;5050953;28;20029;-81
2023/12/18 04:17:35;;;;;;;7.07;2.85;;;;;;;;;;5058782;28;20209;-82
2023/12/18 04:20:01;;;;;;;12.57;3.53;;;;;;;;;;5053570;28;20044;-82
2023/12/18 04:22:27;;;;;;;6.50;2.15;;;;;;;;;;5049305;28;20029;-82
2023/12/18 04:24:53;;;;;;;7.25;4.18;;;;;;;;;;5053688;28;20024;-82
2023/12/18 04:27:19;;;;;;;4.68;1.42;;;;;;;;;;5050611;28;20082;-82
2023/12/18 04:29:45;;;;;;;8.77;4.63;;;;;;;;;;5050216;28;20454;-82
2023/12/18 04:32:11;;;;;;;16.55;2.63;;;;;;;;;;5046655;28;20052;-82
2023/12/18 04:34:37;;;;;;;3.72;2.92;;;;;;;;;;5048940;28;20563;-83
2023/12/18 04:37:03;;;;;;;4.88;3.03;;;;;;;;;;5056426;28;20025;-78
2023/12/18 04:39:29;;;;;;;4.13;2.22;;;;;;;;;;5038536;28;20021;-79
2023/12/18 04:41:55;;;;;;;3.08;2.58;;;;;;;;;;5043225;28;20028;-78
2023/12/18 04:44:20;;;;;;;12.50;2.17;;;-0.70;99.90;;;;;;5048419;28;20143;-79
2023/12/18 04:46:47;;;;;;;6.63;3.30;;;;;;;;;;5041141;28;20561;-79
2023/12/18 04:49:13;;;;;;;3.95;3.15;;;;;;;;;;5039147;28;20037;-79
2023/12/18 04:51:39;;;;;;;4.70;2.45;;;;;;;;;;5040166;28;20037;-79
2023/12/18 04:54:05;;;;;;;13.07;3.65;;;;;;;;;;5040906;28;20060;-79
2023/12/18 04:56:31;;;;;;;9.25;4.00;;;;;;;;;;5038953;28;20029;-78
2023/12/18 04:58:57;;;;;;;6.95;4.10;;;;;;;;;;5036016;28;20033;-79
2023/12/18 05:01:23;;;;;;;9.80;3.58;;;;;;;;;;5033879;28;20116;-78
2023/12/18 05:03:48;;;;;;;6.28;4.18;;;-1.00;99.90;;;;;;5035510;28;20029;-79
2023/12/18 05:06:21;;;;;;;6.15;3.17;;;-0.90;99.90;;;;;;5040876;28;20021;-80
2023/12/18 05:08:48;;;;;;;10.88;6.45;;;-1.10;99.90;;;;;;5043607;28;20516;-84
2023/12/18 05:11:14;;;;;;;9.80;4.38;;;;;;;;;;5049785;28;20107;-86
2023/12/18 05:13:40;;;;;;;13.80;6.07;;;;;;;;;;5060969;28;20051;-91
2023/12/18 05:16:06;;;;;;;12.35;5.05;;;;;;;;;;5047625;28;20460;-81
2023/12/18 05:18:32;;;;;;;9.02;2.55;;;;;;;;;;5048060;28;20025;-81
2023/12/18 05:20:59;;;;;;;5.93;3.58;;;;;;;;;;5048493;28;20405;-84
2023/12/18 05:23:25;;;;;;;4.93;2.78;;;;;;;;;;5045643;28;20035;-85
2023/12/18 05:25:51;;;;;;;2.95;2.47;;;;;;;;;;5040141;28;20029;-79
2023/12/18 05:28:17;;;;;;;7.07;3.38;;;;;;;;;;5042241;28;20036;-80
2023/12/18 05:30:43;;;;;;;3.65;3.35;;;-1.10;99.90;;;;;;5048936;28;20029;-79
2023/12/18 05:33:10;;;;;;;8.10;2.67;;;-1.10;99.90;;;;;;5048399;28;20035;-80
2023/12/18 05:35:35;;;;;;;6.28;4.22;;;-1.10;99.90;;;;;;5042488;28;20027;-78
2023/12/18 05:38:01;;;;;;;9.48;4.07;;;;;;;;;;5033745;28;20026;-80
2023/12/18 05:40:27;;;;;;;4.72;3.55;;;;;;;;;;5038010;28;20021;-81
2023/12/18 05:42:53;;;;;;;8.32;5.75;;;;;;;;;;5049754;28;20047;-81
2023/12/18 05:45:19;;;;;;;9.75;6.15;;;;;;;;;;5047339;28;20025;-83
2023/12/18 05:47:46;;;;;;;12.75;5.40;;;;;;;;;;5042055;28;20030;-84
2023/12/18 05:50:12;;;;;;;7.60;5.32;;;;;;;;;;5034887;28;20051;-84
2023/12/18 05:52:38;;;;;;;6.07;2.42;;;;;;;;;;5047843;28;20039;-84
2023/12/18 05:55:04;;;;;;;7.88;3.67;;;-1.20;99.90;;;;;;5048196;28;20059;-83
2023/12/18 05:57:30;;;;;;;3.30;3.00;;;;;;;;;;5063675;28;20024;-84
2023/12/18 05:59:56;;;;;;;5.25;2.72;;;;;;;;;;5047988;28;20025;-84
2023/12/18 06:02:22;;;;;;;18.15;8.50;;;;;;;;;;5048401;28;20409;-83
2023/12/18 06:04:49;;;;;;;15.07;5.68;;;-1.20;99.90;;;;;;5047779;28;20025;-83
2023/12/18 06:07:15;;;;;;;5.28;3.17;;;;;;;;;;5057721;28;20109;-84
2023/12/18 06:09:41;;;;;;;9.63;5.28;;;;;;;;;;5045969;28;20120;-84
2023/12/18 06:12:07;;;;;;;3.72;2.40;;;;;;;;;;5045927;28;20036;-82
2023/12/18 06:14:33;;;;;;;5.28;2.78;;;;;;;;;;5033180;28;20048;-90
2023/12/18 06:16:59;;;;;;;5.53;2.60;;;;;;;;;;5037675;28;20061;-89
2023/12/18 06:19:26;;;;;;;4.50;2.53;;;;;;;;;;5045063;28;20021;-89
2023/12/18 06:21:52;;;;;;;10.27;4.07;;;;;;;;;;5050263;28;20104;-85
2023/12/18 06:24:18;;;;;;;5.90;3.28;;;;;;;;;;5036342;28;20125;-89
2023/12/18 06:26:44;;;;;;;4.03;3.33;;;;;;;;;;5046266;28;20174;-90
2023/12/18 06:29:10;;;;;;;4.03;2.08;;;;;;;;;;5050511;28;20132;-90
2023/12/18 06:31:36;;;;;;;8.05;3.92;;;;;;;;;;5080889;28;20085;-89
2023/12/18 06:34:03;;;;;;;7.60;2.85;;;;;;;;;;5046221;28;20033;-91
2023/12/18 06:36:29;;;;;;;6.00;2.45;;;;;;;;;;5038553;28;20112;-91
2023/12/18 06:38:55;;;;;;;3.38;2.22;;;;;;;;;;5046934;28;20025;-90
2023/12/18 06:41:21;;;;;;;4.03;2.63;;;;;;;;;;5038694;28;20051;-87
2023/12/18 06:43:47;;;;;;;9.02;4.28;;;;;;;;;;5043754;28;20032;-86
2023/12/18 06:46:13;;;;;;;2.60;2.20;;;;;;;;;;5051778;28;20020;-87
2023/12/18 06:48:40;;;;;;;7.47;4.90;;;;;;;;;;5052834;28;20036;-87
2023/12/18 06:51:09;;;;;;;9.57;3.47;;;-1.30;99.90;;;;;;5046850;28;20028;-85
2023/12/18 06:53:35;;;;;;;4.70;3.90;;;;;;;;;;5047143;28;20672;-86
2023/12/18 06:56:01;;;;;;;8.60;3.17;;;;;;;;;;5047056;28;20038;-86
2023/12/18 06:58:27;;;;;;;1.75;1.65;;;;;;;;;;5047268;28;20032;-87
2023/12/18 07:00:52;;;;;;;3.17;1.65;;;-0.90;99.90;;;;;;5051476;28;20029;-85
2023/12/18 07:03:18;;;;;;;3.20;2.47;;;-1.20;99.90;;;;;;5049743;28;20109;-87
2023/12/18 07:05:45;;;;;;;3.97;2.72;;;-1.20;99.90;;;;;;5043851;28;20393;-86
2023/12/18 07:08:10;;;;;;;3.67;2.58;;;-1.30;99.90;;;;;;5050016;28;20060;-88
2023/12/18 07:10:36;;;;;;;5.68;2.67;;;-1.50;99.90;;;;;;5050396;28;20068;-86
2023/12/18 07:13:02;;;;;;;3.97;2.67;;;;;;;;;;5050066;28;20048;-87
2023/12/18 07:15:28;;;;;;;5.75;3.72;;;-0.80;99.90;;;;;;5047082;28;20033;-82
2023/12/18 07:17:54;;;;;;;8.98;3.05;;;-0.90;99.90;;;;;;5044209;28;20039;-83
2023/12/18 07:20:20;;;;;;;3.50;2.55;;;;;;;;;;5045421;28;20029;-83
2023/12/18 07:22:46;;;;;;;2.38;1.88;;;;;;;;;;5050914;28;20047;-83
2023/12/18 07:25:11;;;;;;;7.63;4.18;;;-0.90;99.90;;;;;;5050113;28;20047;-90
2023/12/18 07:27:37;;;;;;;8.05;4.20;;;;;;;;;;5040428;28;20029;-87
2023/12/18 07:30:04;;;;;;;4.00;2.50;;;;;;;;;;5051659;28;20025;-86
2023/12/18 07:32:32;;;;;;;6.85;3.95;;;-0.70;99.90;;;;;;5051217;28;20021;-83
2023/12/18 07:35:00;;;;;;;7.80;3.35;;;-0.80;99.90;;;;;;5051126;28;20029;-82
2023/12/18 07:37:29;;;;;;;2.65;2.03;;;-0.80;99.90;;;;;;5051052;28;20035;-82
2023/12/18 07:39:59;;;;;;;7.97;4.90;;;-0.80;99.90;;;;;;5050452;28;20028;-82
2023/12/18 07:42:25;;;;;;;7.82;3.65;;;;;;;;;;5051301;28;20028;-88
2023/12/18 07:44:51;;;;;;;8.90;4.95;;;-0.80;99.90;;;;;;5053673;28;20525;-83
2023/12/18 07:47:17;;;;;;;3.17;2.03;;;;;;;;;;5058128;28;20086;-86
2023/12/18 07:49:44;;;;;;;12.75;4.00;;;;;;;;;;5047457;28;20502;-83
2023/12/18 07:52:10;;;;;;;8.53;3.37;;;-0.50;99.90;;;;;;5050273;28;20029;-88
2023/12/18 07:54:36;;;;;;;10.98;5.18;;;;;;;;;;5048825;28;20824;-83
2023/12/18 07:57:05;;;;;;;9.07;7.47;;;;;;;;;;5045340;28;20037;-82
2023/12/18 07:59:31;;;;;;;9.30;4.05;;;-0.30;99.90;;;;;;5048357;28;20032;-93
2023/12/18 08:01:57;;;;;;;2.22;1.73;;;;;;;;;;5041454;28;20029;-89
2023/12/18 08:04:22;;;;;;;4.85;3.45;;;-0.20;99.90;;;;;;5048022;28;20025;-91
2023/12/18 08:06:51;;;;;;;10.75;4.55;;;;;;;;;;5053751;28;20022;-90
2023/12/18 08:09:17;;;;;;;2.30;2.10;;;;;;;;;;5050564;28;20053;-89
2023/12/18 08:11:43;;;;;;;10.18;4.28;;;;;;;;;;5037577;28;20025;-87
2023/12/18 08:14:09;;;;;;;5.35;3.22;;;;;;;;;;5048443;28;20448;-86
2023/12/18 08:16:35;;;;;;;9.15;3.88;;;0.10;99.90;;;;;;5041546;28;20024;-86
2023/12/18 08:19:01;;;;;;;7.93;2.53;;;;;;;;;;5045814;28;20036;-87
2023/12/18 08:21:27;;;;;;;18.90;11.13;;;0.00;99.90;;;;;;5048776;28;20024;-84
2023/12/18 08:23:53;;;;;;;20.83;10.43;;;0.00;99.90;;;;;;5046861;28;20029;-83
2023/12/18 08:26:19;;;;;;;21.13;9.63;;;;;;;;;;5049331;28;20616;-84
2023/12/18 08:28:45;;;;;;;8.30;5.40;;;-0.20;99.90;;;;;;5054598;28;20037;-87
2023/12/18 08:31:11;;;;;;;14.02;7.43;;;0.00;99.90;;;;;;5039087;28;20116;-89
2023/12/18 08:33:38;;;;;;;15.07;9.63;;;-0.10;99.90;;;;;;5046622;28;20033;-90
2023/12/18 08:36:05;;;;;;;18.63;9.85;;;0.10;99.90;;;;;;5045797;28;20358;-90
2023/12/18 08:38:30;;;;;;;18.65;11.52;;;-0.40;99.90;;;;;;5040854;28;20032;-89
2023/12/18 08:40:56;;;;;;;21.73;10.15;;;;;;;;;;5051388;28;20033;-90
2023/12/18 08:43:22;;;;;;;12.68;6.30;;;0.70;99.90;;;;;;5042774;28;20028;-89
2023/12/18 08:45:48;;;;;;;10.20;6.05;;;;;;;;;;5044862;28;20073;-90
2023/12/18 08:48:15;;;;;;;14.80;7.82;;;;;;;;;;5042373;28;20041;-91
2023/12/18 08:50:41;;;;;;;9.18;5.78;;;;;;;;;;5047097;28;20397;-93
2023/12/18 08:53:07;;;;;;;8.48;6.75;;;;;;;;;;5015911;28;20124;-88
2023/12/18 08:55:38;;;;;;;9.43;6.43;;;;;;;;;;5022025;28;20025;-92
2023/12/18 08:58:04;;;;;;;8.73;6.28;;;;;;;;;;5015263;28;20069;-81
2023/12/18 09:00:31;;;;;;;14.02;5.97;;;;;;;;;;5023835;28;20111;-81
2023/12/18 09:02:58;;;;;;;14.35;7.03;;;;;;;;;;5028205;28;20049;-81
2023/12/18 09:05:24;;;;;;;;;;;20.80;44.70;;;;;;5024292;28;20037;-82
2023/12/18 09:07:50;;;;;;;11.50;7.28;;;;;;;;;;5037104;28;20332;-79
2023/12/18 09:10:17;;;;;;;14.45;7.53;;;;;;;;;;5033425;28;20160;-88
2023/12/18 09:12:44;;;;;;;13.02;8.18;;;;;;;;;;5037863;28;20029;-80
2023/12/18 09:15:10;;;;;;;21.55;11.35;;;26.30;50.10;;;;;;5044362;28;20036;-83
2023/12/18 09:17:36;;;;;;;57.70;25.23;;;;;;;;;;5032599;28;20032;-86
2023/12/18 09:20:02;;;;;;;32.38;13.80;;;29.60;35.60;;;;;;5028980;28;20572;-87
2023/12/18 09:22:29;;;;;;;24.45;11.23;;;;;;;;;;5034748;28;20649;-88
2023/12/18 09:24:55;;;;;;;17.25;9.57;;;;;;;;;;5033035;28;20053;-82
2023/12/18 09:27:20;;;;;;;11.95;7.18;;;25.40;46.00;;;;;;5018294;28;20034;-84
2023/12/18 09:29:46;;;;;;;9.57;6.55;;;;;;;;;;5016073;28;21007;-81
2023/12/18 09:32:12;;;;;;;18.00;9.98;;;;;;;;;;5028878;28;20043;-81
2023/12/18 09:34:38;;;;;;;14.50;8.55;;;28.30;56.00;;;;;;5035272;28;20556;-80
2023/12/18 09:37:04;;;;;;;31.15;11.73;;;;;;;;;;5041865;28;20035;-81
2023/12/18 09:39:30;;;;;;;22.80;11.95;;;32.00;34.40;;;;;;5027474;28;20030;-80
2023/12/18 09:42:02;;;;;;;15.47;8.73;;;33.20;34.40;;;;;;5019164;28;20152;-85
2023/12/18 09:44:32;;;;;;;16.60;8.35;;;34.60;31.70;;;;;;5032205;28;22067;-86
2023/12/18 09:47:01;;;;;;;19.05;10.65;;;34.80;30.50;;;;;;5018667;28;20108;-84
2023/12/18 09:49:27;;;;;;;14.90;8.77;;;;;;;;;;5022516;28;20045;-90
2023/12/18 09:51:54;;;;;;;15.38;11.85;;;36.40;29.70;;;;;;5022424;28;20068;-89
2023/12/18 09:54:24;;;;;;;15.60;9.57;;;36.50;32.80;;;;;;5028408;28;20123;-90
2023/12/18 09:56:51;;;;;;;17.52;13.48;;;36.90;41.10;;;;;;5031809;28;20045;-89
2023/12/18 09:59:17;;;;;;;15.82;10.38;;;;;;;;;;5031171;28;20029;-89
2023/12/18 10:01:45;;;;;;;16.33;10.57;;;36.50;28.40;;;;;;5033781;28;20021;-87
2023/12/18 10:04:11;;;;;;;12.70;8.20;;;35.00;39.70;;;;;;5029582;28;20357;-87
2023/12/18 10:06:37;;;;;;;13.47;7.90;;;;;;;;;;5035503;28;20026;-85
2023/12/18 10:09:03;;;;;;;19.77;10.33;;;;;;;;;;5039040;28;20060;-86
2023/12/18 10:11:29;;;;;;;14.33;7.77;;;;;;;;;;5032729;28;20054;-85
2023/12/18 10:13:56;;;;;;;12.38;6.72;;;;;;;;;;5024695;28;20287;-86
2023/12/18 10:16:22;;;;;;;8.90;4.93;;;26.70;35.00;;;;;;5031489;28;20056;-93
2023/12/18 10:18:48;;;;;;;10.23;4.55;;;;;;;;;;5044290;28;20042;-94
2023/12/18 10:21:21;;;;;;;5.97;3.90;;;28.40;51.30;;;;;;5029939;28;20524;-86
2023/12/18 10:23:47;;;;;;;4.03;2.42;;;;;;;;;;5033561;28;20902;-86
2023/12/18 10:26:13;;;;;;;5.68;2.58;;;;;;;;;;5033067;28;20100;-86
2023/12/18 10:28:39;;;;;;;7.50;4.35;;;;;;;;;;5032440;28;20033;-86
2023/12/18 10:31:08;;;;;;;20.40;10.60;;;;;;;;;;5033282;28;20394;-85
2023/12/18 10:33:34;;;;;;;21.80;14.07;;;;;;;;;;5020214;28;20025;-85
2023/12/18 10:36:00;;;;;;;27.38;14.10;;;;;;;;;;5032713;28;20036;-85
2023/12/18 10:38:30;;;;;;;24.42;12.25;;;37.10;26.70;;;;;;5030833;28;20029;-86
2023/12/18 10:41:01;;;;;;;19.92;12.18;;;37.20;26.20;;;;;;5032423;28;20048;-86
2023/12/18 10:43:30;;;;;;;26.00;13.80;;;37.60;26.10;;;;;;5040722;28;20025;-85
2023/12/18 10:45:57;;;;;;;22.42;12.43;;;37.80;25.80;;;;;;5052631;28;20029;-86
2023/12/18 10:48:25;;;;;;;19.95;11.15;;;38.10;25.60;;;;;;5046212;28;20061;-86
2023/12/18 10:50:54;;;;;;;9.38;6.95;;;38.30;25.50;;;;;;5033646;28;20034;-85
2023/12/18 10:53:21;;;;;;;9.05;5.63;;;38.40;25.30;;;;;;5032292;28;20041;-85
2023/12/18 10:55:48;;;;;;;11.82;5.85;;;38.20;25.00;;;;;;5025818;28;20060;-80
2023/12/18 10:58:16;;;;;;;10.35;6.18;;;37.70;40.40;;;;;;5027275;28;20029;-80
2023/12/18 11:00:47;;;;;;;11.63;5.35;;;37.60;25.00;;;;;;5030518;28;20021;-81
2023/12/18 11:03:14;;;;;;;18.02;9.05;;;;;;;;;;5021793;28;20454;-80
2023/12/18 11:05:41;;;;;;;23.42;13.38;;;33.70;25.80;;;;;;5032179;28;20044;-80
2023/12/18 11:08:07;;;;;;;14.05;9.68;;;;;;;;;;5026635;28;20124;-80
2023/12/18 11:10:33;;;;;;;17.80;9.93;;;;;;;;;;5036675;28;20028;-81
2023/12/18 11:13:10;;;;;;;16.80;9.20;;;31.20;26.30;;;;;;5028272;28;20108;-86
2023/12/18 11:15:57;;;;;;;11.23;6.97;;;30.70;27.10;;;;;;5026877;28;20052;-85
2023/12/18 11:18:37;;;;;;;12.90;7.22;;;29.10;27.40;;;;;;5033306;28;20040;-86
2023/12/18 11:21:03;;;;;;;18.88;8.32;;;27.90;29.70;;;;;;5023048;28;20028;-86
2023/12/18 11:23:38;;;;;;;14.05;8.25;;;26.80;29.00;;;;;;5028659;28;20021;-85
2023/12/18 11:26:05;;;;;;;15.10;8.00;;;26.00;29.80;;;;;;5036416;28;20040;-85
2023/12/18 11:28:32;;;;;;;12.70;7.47;;;;;;;;;;5030894;28;20033;-85
2023/12/18 11:31:02;;;;;;;13.90;7.53;;;24.30;48.10;;;;;;5032710;28;20116;-85
2023/12/18 11:33:28;;;;;;;11.45;7.55;;;;;;;;;;5047725;28;20521;-84
2023/12/18 11:35:55;;;;;;;17.13;8.52;;;22.70;33.00;;;;;;5044181;28;20020;-84
2023/12/18 11:38:24;;;;;;;12.57;7.18;;;22.00;34.00;;;;;;5027131;28;20021;-85
2023/12/18 11:40:50;;;;;;;16.17;8.13;;;;;;;;;;5030200;28;20438;-85
2023/12/18 11:43:45;;;;;;;12.95;7.18;;;21.10;35.50;;;;;;5029109;28;20036;-85
2023/12/18 11:46:14;;;;;;;14.43;6.65;;;20.60;36.10;;;;;;5036411;28;20063;-86
2023/12/18 11:48:41;;;;;;;8.27;5.68;;;20.10;36.50;;;;;;5021274;28;20112;-85
2023/12/18 11:51:07;;;;;;;10.23;7.18;;;;;;;;;;5027502;28;20029;-85
2023/12/18 11:53:34;;;;;;;10.07;6.07;;;19.50;37.50;;;;;;5034244;28;20060;-85
2023/12/18 11:56:11;;;;;;;10.43;5.78;;;19.40;37.90;;;;;;5026892;28;20386;-85
2023/12/18 11:58:40;;;;;;;10.68;5.20;;;19.30;37.80;;;;;;5018675;28;20071;-85
2023/12/18 12:01:07;;;;;;;8.75;4.20;;;;;;;;;;5022420;28;20630;-85
2023/12/18 12:03:33;;;;;;;7.13;3.15;;;;;;;;;;5030794;28;20021;-85
2023/12/18 12:06:02;;;;;;;6.80;4.00;;;;;;;;;;5028373;28;20064;-84
2023/12/18 12:08:28;;;;;;;6.60;3.78;;;;;;;;;;5021880;28;20132;-84
2023/12/18 12:10:55;;;;;;;5.47;3.13;;;18.50;38.70;;;;;;5025943;28;20033;-84
2023/12/18 12:13:27;;;;;;;5.93;3.10;;;18.40;46.30;;;;;;5019722;28;20458;-84
2023/12/18 12:16:03;;;;;;;5.38;3.17;;;18.00;38.50;;;;;;5037374;28;20051;-84
2023/12/18 12:18:31;;;;;;;4.55;3.05;;;18.00;38.90;;;;;;5029167;28;20025;-85
2023/12/18 12:20:57;;;;;;;9.00;3.53;;;;;;;;;;5041799;28;20056;-86
2023/12/18 12:23:23;;;;;;;10.07;3.53;;;17.80;39.20;;;;;;5033080;28;20028;-85
2023/12/18 12:25:50;;;;;;;3.35;2.65;;;17.80;39.50;;;;;;5037912;28;20021;-82
2023/12/18 12:28:17;;;;;;;7.07;4.80;;;;;;;;;;5028160;28;20111;-85
2023/12/18 12:30:43;;;;;;;9.70;4.05;;;17.40;39.10;;;;;;5030526;28;20021;-84
2023/12/18 12:33:10;;;;;;;12.50;3.58;;;17.30;39.50;;;;;;5025379;28;20039;-83
2023/12/18 12:35:36;;;;;;;6.93;4.50;;;;;;;;;;5020839;28;20021;-83
2023/12/18 12:38:03;;;;;;;6.13;3.95;;;17.10;39.70;;;;;;5031668;28;20032;-82
2023/12/18 12:40:38;;;;;;;7.35;4.20;;;17.10;40.90;;;;;;5031828;28;20516;-82
2023/12/18 12:43:05;;;;;;;7.18;3.60;;;17.00;39.90;;;;;;5034802;28;20033;-85
2023/12/18 12:45:31;;;;;;;7.15;3.53;;;;;;;;;;5023816;28;20029;-87
2023/12/18 12:47:58;;;;;;;6.05;3.40;;;16.90;40.40;;;;;;5027654;28;20131;-87
2023/12/18 12:50:24;;;;;;;4.30;2.83;;;;;;;;;;5031880;28;20071;-84
2023/12/18 12:52:51;;;;;;;9.93;3.85;;;;;;;;;;5022817;28;20026;-89
2023/12/18 12:55:17;;;;;;;4.55;2.80;;;;;;;;;;5031301;28;20073;-87
2023/12/18 12:57:43;;;;;;;8.27;3.33;;;;;;;;;;5033813;28;20032;-86
2023/12/18 13:00:09;;;;;;;6.82;3.67;;;;;;;;;;5029078;28;20029;-87
2023/12/18 13:02:36;;;;;;;3.83;2.42;;;;;;;;;;5031424;28;20107;-87
2023/12/18 13:05:03;;;;;;;7.40;2.83;;;;;;;;;;5031955;28;20029;-83
2023/12/18 13:07:28;;;;;;;11.52;3.28;;;;;;;;;;5028502;28;20124;-83
2023/12/18 13:09:54;;;;;;;5.53;3.22;;;;;;;;;;5029957;28;20108;-83
2023/12/18 13:12:21;;;;;;;9.00;4.47;;;;;;;;;;5042254;28;20018;-85
2023/12/18 13:14:49;;;;;;;9.50;3.38;;;15.90;42.30;;;;;;5036885;28;20026;-86
2023/12/18 13:17:15;;;;;;;5.35;3.00;;;;;;;;;;5028040;28;20075;-83
2023/12/18 13:19:41;;;;;;;6.82;3.42;;;;;;;;;;5029591;28;20018;-83
2023/12/18 13:22:08;;;;;;;5.20;2.90;;;;;;;;;;5038169;28;20484;-82
2023/12/18 13:24:34;;;;;;;5.95;2.95;;;;;;;;;;5023972;28;20486;-83
2023/12/18 13:27:03;;;;;;;8.85;2.85;;;15.50;43.60;;;;;;5028568;28;20099;-84
2023/12/18 13:29:32;;;;;;;9.13;2.95;;;;;;;;;;5040400;28;20040;-83
2023/12/18 13:32:02;;;;;;;5.35;2.70;;;15.30;44.10;;;;;;5030248;28;20084;-87
2023/12/18 13:34:32;;;;;;;6.97;3.28;;;15.20;43.90;;;;;;5046778;28;20068;-85
2023/12/18 13:36:58;;;;;;;5.03;3.03;;;;;;;;;;5048390;28;20169;-84
2023/12/18 13:39:24;;;;;;;5.38;3.40;;;;;;;;;;5047408;28;20021;-81
2023/12/18 13:41:59;;;;;;;6.78;3.40;;;;;;;;;;5048356;28;20490;-81
2023/12/18 13:44:25;;;;;;;7.32;4.18;;;;;;;;;;5031406;28;20033;-89
2023/12/18 13:46:51;;;;;;;6.50;3.17;;;;;;;;;;5036730;28;20025;-92